createdAt,value
2024-01-07T00:08:37.194Z,57.80
2024-01-07T00:11:11.357Z,55.58
2024-01-07T00:16:46.033Z,60.47
2024-01-07T00:19:14.282Z,54.17
2024-01-07T00:21:44.029Z,46.28
2024-01-07T00:45:31.216Z,42.22
2024-01-07T01:13:20.700Z,48.33
2024-01-07T01:15:48.998Z,43.80
2024-01-07T01:18:17.720Z,50.38
2024-01-07T09:56:27.081Z,8.23
2024-01-07T10:59:31.732Z,5.07
2024-01-07T11:02:05.462Z,4.40
2024-01-07T11:17:39.343Z,3.20
2024-01-07T11:20:30.653Z,3.40
2024-01-07T11:32:42.993Z,4.97
2024-01-07T11:35:13.127Z,2.25
2024-01-07T11:37:43.088Z,6.22
2024-01-07T11:40:12.874Z,3.47
2024-01-07T11:42:43.200Z,2.20
2024-01-07T11:45:20.027Z,2.28
2024-01-07T11:47:52.279Z,4.50
2024-01-07T11:50:22.508Z,2.05
2024-01-07T12:18:12.924Z,3.72
2024-01-07T15:17:20.302Z,2.05
2024-01-07T15:19:50.921Z,5.18
2024-01-07T15:22:26.606Z,2.15
2024-01-07T15:24:55.241Z,2.78
2024-01-07T15:27:25.604Z,3.25
2024-01-07T15:29:54.607Z,3.13
2024-01-07T15:32:28.036Z,1.85
2024-01-07T15:34:59.760Z,2.63
2024-01-07T15:37:30.406Z,1.77
2024-01-07T15:39:58.565Z,4.78
2024-01-07T15:42:46.477Z,3.83
2024-01-07T15:45:14.042Z,2.28
2024-01-07T15:47:44.008Z,2.63
2024-01-07T15:50:12.816Z,3.65
2024-01-07T15:52:47.722Z,1.75
2024-01-07T15:55:16.264Z,3.37
2024-01-07T15:57:46.359Z,2.67
2024-01-07T16:00:16.173Z,2.95
2024-01-07T16:02:44.286Z,4.40
2024-01-07T16:05:12.414Z,3.40
2024-01-07T16:07:40.232Z,3.28
2024-01-07T16:10:09.270Z,2.70
2024-01-07T16:12:37.075Z,3.05
2024-01-07T16:15:05.318Z,6.35
2024-01-07T16:17:33.272Z,1.88
2024-01-07T16:20:00.961Z,6.07
2024-01-07T16:22:29.822Z,5.05
2024-01-07T16:24:57.247Z,3.47
2024-01-07T16:27:24.843Z,7.70
2024-01-07T16:29:52.754Z,6.22
2024-01-07T16:32:20.846Z,3.42
2024-01-07T16:34:48.942Z,4.60
2024-01-07T16:37:16.979Z,5.13
2024-01-07T16:39:44.503Z,7.20
2024-01-07T16:42:11.619Z,3.80
2024-01-07T16:44:39.560Z,7.80
2024-01-07T16:47:08.832Z,5.18
2024-01-07T16:50:19.325Z,5.50
2024-01-07T16:52:24.919Z,9.77
2024-01-07T16:54:52.202Z,5.70
2024-01-07T16:57:20.143Z,7.78
2024-01-07T16:59:48.321Z,6.20
2024-01-07T17:02:15.628Z,7.30
2024-01-07T17:04:43.159Z,6.43
2024-01-07T17:07:10.428Z,7.18
2024-01-07T17:09:37.714Z,4.97
2024-01-07T17:12:06.158Z,8.30
2024-01-07T17:14:33.680Z,4.35
2024-01-07T17:17:01.052Z,4.15
2024-01-07T17:19:28.473Z,10.30
2024-01-07T17:21:55.726Z,5.10
2024-01-07T17:24:23.076Z,5.97
2024-01-07T17:26:50.405Z,6.13
2024-01-07T17:29:17.970Z,5.45
2024-01-07T17:31:45.565Z,4.72
2024-01-07T17:34:12.790Z,8.82
2024-01-07T17:36:41.304Z,4.07
2024-01-07T17:39:10.892Z,8.70
2024-01-07T17:41:38.636Z,7.53
2024-01-07T17:44:06.511Z,5.88
2024-01-07T17:46:34.877Z,5.88
2024-01-07T17:49:05.218Z,7.88
2024-01-07T17:51:32.578Z,7.78
2024-01-07T17:53:59.872Z,6.60
2024-01-07T17:56:27.514Z,8.98
2024-01-07T17:58:55.894Z,10.32
2024-01-07T18:01:23.124Z,22.70
2024-01-07T18:03:50.521Z,7.40
2024-01-07T18:06:17.997Z,9.63
2024-01-07T18:08:52.106Z,9.55
2024-01-07T18:11:21.312Z,9.13
2024-01-07T18:13:49.202Z,12.40
2024-01-07T18:16:16.784Z,7.53
2024-01-07T18:18:44.464Z,14.52
2024-01-07T18:21:16.451Z,9.00
2024-01-07T18:23:44.128Z,8.00
2024-01-07T18:26:14.248Z,10.48
2024-01-07T18:28:43.643Z,8.00
2024-01-07T18:31:12.497Z,9.63
2024-01-07T18:33:40.023Z,9.30
2024-01-07T18:36:10.315Z,8.25
2024-01-07T18:38:39.365Z,9.93
2024-01-07T18:41:06.788Z,12.45
2024-01-07T18:43:34.573Z,8.23
2024-01-07T18:46:01.913Z,10.90
2024-01-07T18:48:29.548Z,15.45
2024-01-07T18:50:57.044Z,11.35
2024-01-07T18:53:24.308Z,14.32
2024-01-07T18:55:52.860Z,9.40
2024-01-07T18:58:20.926Z,12.20
2024-01-07T19:00:48.939Z,11.27
2024-01-07T19:03:17.644Z,9.65
2024-01-07T19:05:46.103Z,15.23
2024-01-07T19:08:13.340Z,10.50
2024-01-07T19:10:41.482Z,9.35
2024-01-07T19:13:08.990Z,11.65
2024-01-07T19:15:37.677Z,9.13
2024-01-07T19:18:05.546Z,10.20
2024-01-07T19:20:34.057Z,11.45
2024-01-07T19:23:02.553Z,10.65
2024-01-07T19:25:29.873Z,11.18
2024-01-07T19:27:58.413Z,8.20
2024-01-07T19:30:25.793Z,11.48
2024-01-07T19:32:53.260Z,9.82
2024-01-07T19:35:20.864Z,7.53
2024-01-07T19:37:48.255Z,12.20
2024-01-07T19:40:15.709Z,11.02
2024-01-07T19:42:42.942Z,9.63
2024-01-07T19:45:10.535Z,11.07
2024-01-07T19:47:37.885Z,9.13
2024-01-07T19:50:07.109Z,8.43
2024-01-07T19:52:34.706Z,9.68
2024-01-07T19:55:02.347Z,15.30
2024-01-07T19:57:31.046Z,9.10
2024-01-07T19:59:58.707Z,9.65
2024-01-07T20:02:26.012Z,12.48
2024-01-07T20:04:53.237Z,9.02
2024-01-07T20:07:20.602Z,8.07
2024-01-07T20:09:47.871Z,9.65
2024-01-07T20:12:15.327Z,8.88
2024-01-07T20:14:43.422Z,6.78
2024-01-07T20:17:11.093Z,9.40
2024-01-07T20:19:39.345Z,8.50
2024-01-07T20:22:06.873Z,10.70
2024-01-07T20:24:35.863Z,13.13
2024-01-07T20:27:03.438Z,9.32
2024-01-07T20:29:32.023Z,9.93
2024-01-07T20:31:59.397Z,13.48
2024-01-07T20:34:27.154Z,9.05
2024-01-07T20:36:54.795Z,12.73
2024-01-07T20:39:22.713Z,9.90
2024-01-07T20:41:50.879Z,13.07
2024-01-07T20:44:18.282Z,11.27
2024-01-07T20:46:45.589Z,9.15
2024-01-07T20:49:13.190Z,10.18
2024-01-07T20:51:40.990Z,11.52
2024-01-07T20:54:08.267Z,10.23
2024-01-07T20:56:38.223Z,10.93
2024-01-07T20:59:08.284Z,11.90
2024-01-07T21:01:35.553Z,8.88
2024-01-07T21:04:02.896Z,8.27
2024-01-07T21:06:30.515Z,12.07
2024-01-07T21:08:57.943Z,9.23
2024-01-07T21:11:25.339Z,8.80
2024-01-07T21:13:52.766Z,10.60
2024-01-07T21:16:20.073Z,8.57
2024-01-07T21:18:48.547Z,8.85
2024-01-07T21:21:17.008Z,10.88
2024-01-07T21:23:44.259Z,8.50
2024-01-07T21:26:12.305Z,10.75
2024-01-07T21:28:39.809Z,8.88
2024-01-07T21:31:09.975Z,7.25
2024-01-07T21:33:39.102Z,7.10
2024-01-07T21:36:06.822Z,9.30
2024-01-07T21:38:34.256Z,10.38
2024-01-07T21:41:05.629Z,10.73
2024-01-07T21:43:34.250Z,8.75
2024-01-07T21:46:06.097Z,9.68
2024-01-07T21:48:35.268Z,10.20
2024-01-07T21:51:04.339Z,8.02
2024-01-07T21:53:31.721Z,9.07
2024-01-07T21:56:01.610Z,8.52
2024-01-07T21:58:30.440Z,6.47
2024-01-07T22:00:57.753Z,6.80
2024-01-07T22:03:25.280Z,6.38
2024-01-07T22:05:52.719Z,6.18
2024-01-07T22:08:20.030Z,8.45
2024-01-07T22:10:47.262Z,6.97
2024-01-07T22:13:14.670Z,5.93
2024-01-07T22:15:42.421Z,4.95
2024-01-07T22:18:10.136Z,3.38
2024-01-07T22:20:37.496Z,7.35
2024-01-07T22:23:04.903Z,4.25
2024-01-07T22:25:32.664Z,5.75
2024-01-07T22:27:59.809Z,7.20
2024-01-07T22:30:27.087Z,5.57
2024-01-07T22:32:54.439Z,3.58
2024-01-07T22:35:21.988Z,4.95
2024-01-07T22:37:51.300Z,6.25
2024-01-07T22:40:18.668Z,6.65
2024-01-07T22:42:45.845Z,4.28
2024-01-07T22:45:13.173Z,5.07
2024-01-07T22:47:40.382Z,4.28
2024-01-07T22:50:08.347Z,4.00
2024-01-07T22:52:35.692Z,4.97
2024-01-07T22:55:02.877Z,7.32
2024-01-07T22:57:30.179Z,3.88
2024-01-07T22:59:58.525Z,3.15
2024-01-07T23:02:25.730Z,4.90
2024-01-07T23:04:53.204Z,5.10
2024-01-07T23:07:20.771Z,5.68
2024-01-07T23:09:48.093Z,5.68
2024-01-07T23:12:15.445Z,6.35
2024-01-07T23:14:42.624Z,4.05
2024-01-07T23:17:10.015Z,3.72
2024-01-07T23:19:37.314Z,4.05
2024-01-07T23:22:04.849Z,3.85
2024-01-07T23:24:32.239Z,3.75
2024-01-07T23:26:59.531Z,5.82
2024-01-07T23:29:26.973Z,5.57
2024-01-07T23:31:54.669Z,4.47
2024-01-07T23:34:22.245Z,7.22
2024-01-07T23:36:49.638Z,5.60
2024-01-07T23:39:16.698Z,5.25
2024-01-07T23:41:44.170Z,6.43
2024-01-07T23:44:12.079Z,5.55
2024-01-07T23:46:39.605Z,5.18
2024-01-07T23:49:07.033Z,6.55
2024-01-07T23:51:34.331Z,5.47
2024-01-07T23:54:01.494Z,5.05
2024-01-07T23:56:28.794Z,5.00
2024-01-07T23:58:56.209Z,5.65
